Tiempo atmosférico en la estación meteorológica de La Vall de Bianya, Girona (440 m.)



Fecha
DESCASC
Temp. máxima en grados centígrados (hora)
DESCASC
Temp. mínima en grados centígrados (hora)
DESCASC
Temp. media en grados centígrados
DESCASC
Racha de viento máxima en m/sg (hora)
DESCASC
Velocidad máxima media en intervalos de 10 minutos(hora)
DESCASC
Precipitaciones diarias en mm
DESCASC
Precipitaciones de 00:00 a 06:00 en mm
DESCASC
Precipitaciones de 06:00 a 12:00 en mm
DESCASC
Precipitaciones de 12:00 a 18:00 en mm
DESCASC
Precipitaciones de 18:00 a 24:00 en mm
DESCASC
19-05-2019 17 (15:00) 4.5 (05:50) 10.8 5.28 (12:00) 2.78 (12:30) 8.4 0 0 8.4 0
18-05-2019 15.6 (12:00) 8 (23:59) 11.8 9.17 (13:10) 4.44 (12:30) 4 1.2 0 2.2 0.6
17-05-2019 14.6 (00:00) 8.1 (09:00) 11.4 6.11 (02:20) 3.06 (16:00) 9.4 1.2 8 0.2 0
16-05-2019 24.6 (16:00) 4.5 (00:00) 14.6 7.78 (18:50) 4.44 (18:50) 0 0 0 0 0
15-05-2019 18.5 (12:10) 7.3 (00:00) 12.9 8.89 (13:50) 5 (14:00) 0 0 0 0 0
14-05-2019 23.5 (14:40) 4.6 (00:00) 14 10 (15:30) 5.83 (15:40) 0 0 0 0 0
13-05-2019 24.6 (16:00) 4.2 (00:00) 14.4 8.33 (00:10) 3.61 (00:10) 0 0 0 0 0
12-05-2019 24.4 (17:40) 6.6 (00:00) 15.5 8.89 (20:20) 3.33 (23:59) 0 0 0 0 0
11-05-2019 19 (10:50) 10.2 (00:00) 14.6 8.06 (14:00) 4.44 (14:00) 6.6 0 0 6.6 0
10-05-2019 24 (14:00) 9.6 (00:00) 16.8 6.39 (15:10) 3.33 (14:40) 2 0 0 2 0
09-05-2019 20.8 (15:00) 8 (00:00) 14.4 8.61 (16:40) 5 (16:30) 0 0 0 0 0
08-05-2019 26 (15:50) 13.2 (00:00) 19.6 13.06 (16:20) 7.22 (16:20) 1.6 0 0 0 1.6
07-05-2019 22.3 (17:30) 3.9 (00:00) 13.1 7.78 (19:50) 3.89 (16:20) 0 0 0 0 0
06-05-2019 18.9 (16:40) -0.6 (-00:0) 9.1 8.61 (14:30) 5 (15:40) 0 0 0 0 0
05-05-2019 18.8 (15:40) 1.8 (00:00) 10.3 10.28 (15:00) 4.17 (12:40) 2.4 2.4 0 0 0
04-05-2019 19.1 (16:10) 2.4 (00:00) 10.8 6.11 (17:20) 3.61 (17:20) 0 0 0 0 0
03-05-2019 12 (10:30) 6.4 (00:00) 9.2 5 (15:20) 2.78 (15:20) 16.4 2.6 0.2 13.6 0
02-05-2019 18 (11:50) 11.1 (23:50) 14.6 7.5 (15:20) 4.17 (14:10) 12 5.2 0 5.2 1.6
01-05-2019 22.8 (14:20) 6.6 (00:00) 14.7 8.89 (16:20) 4.72 (17:20) 2 0 0 0 2
30-04-2019 21.1 (15:40) 8.4 (00:00) 14.8 8.61 (16:10) 4.44 (16:20) 0 0 0 0 0
29-04-2019 19.6 (16:10) 9.6 (00:00) 14.6 7.78 (18:00) 3.61 (18:00) 0 0 0 0 0
28-04-2019 17.1 (13:50) 9.7 (00:00) 13.4 7.78 (12:50) 3.89 (13:40) 0 0 0 0 0
27-04-2019 18.3 (14:50) 5.9 (00:00) 12.1 6.39 (14:20) 3.33 (14:20) 0 0 0 0 0
26-04-2019 18.2 (14:00) 2.5 (00:00) 10.4 7.78 (17:10) 3.89 (17:10) 0 0 0 0 0
25-04-2019 19.5 (16:50) 6.2 (00:00) 12.8 15.28 (20:00) 6.94 (17:20) 5 2.6 1 0.2 1.2
24-04-2019 17.4 (17:50) 7.5 (00:00) 12.4 16.39 (13:20) 7.5 (12:20) 0 0 0 0 0

Gráficas

Temp. máximas Temp. mínimas Temp. medias Precipitaciones Rachas de viento máximas Velocidades máximas media en intervalos de 10 minutos

Datos horarios

Fecha y hora oficial Temperatura (ºC) Velocidad del viento (km/h) Dirección del viento Racha (km/h) Dirección de racha Precipitación (mm) Presión (hPa) Tendencia (hPa) Humedad (%)
2019-05-23 23:00:00 16.8 0 Calma 4 Norte 0 -- -- 71
2019-05-23 22:00:00 18.2 2 Este 8 Sudeste 0 -- -- 69
2019-05-23 21:00:00 19.6 4 Sudeste 11 Este 0 -- -- 57
2019-05-23 20:00:00 20.7 5 Sudeste 13 Este 0 -- -- 54
2019-05-23 19:00:00 22.3 5 Este 20 Este 0 -- -- 49
2019-05-23 18:00:00 23.4 10 Nordeste 20 Nordeste 0 -- -- 45
2019-05-23 17:00:00 23.9 11 Este 26 Este 0 -- -- 45
2019-05-23 16:00:00 23.7 14 Nordeste 28 Este 0 -- -- 45
2019-05-23 15:00:00 24 14 Este 24 Nordeste 0 -- -- 45
2019-05-23 14:00:00 23.9 10 Este 23 Nordeste 0 -- -- 46
2019-05-23 13:00:00 23.3 9 Este 21 Este 0 -- -- 51
2019-05-23 12:00:00 22.3 8 Nordeste 15 Nordeste 0 -- -- 47
2019-05-23 11:00:00 21 6 Este 15 Este 0 -- -- 54
2019-05-23 10:00:00 17.9 3 Nordeste 6 Sudeste 0 -- -- 64
2019-05-23 09:00:00 13.7 2 Noroeste 6 Oeste 0 -- -- 88
2019-05-23 08:00:00 10.1 0 Calma 5 Oeste 0 -- -- 98
2019-05-23 07:00:00 8.1 0 Calma 4 Oeste 0 -- -- 98
2019-05-23 06:00:00 8.5 0 Calma 4 Oeste 0 -- -- 98
2019-05-23 05:00:00 8.8 0 Calma 2 Sudoeste 0 -- -- 97
2019-05-23 04:00:00 9.7 3 Noroeste 5 Oeste 0 -- -- 96
2019-05-23 03:00:00 10.2 0 Calma 4 Noroeste 0 -- -- 96
2019-05-23 02:00:00 10.9 0 Calma 4 Oeste 0 -- -- 95
2019-05-23 01:00:00 11.8 0 Calma 2 Este 0 -- -- 92
2019-05-23 00:00:00 13.1 0 Calma 5 Noroeste 0 -- -- 89
2019-05-22 23:00:00 14.7 0 Calma 4 Norte 0 -- -- 82
2019-05-22 22:00:00 15.9 0 Calma 4 Sudeste 0 -- -- 77
2019-05-22 21:00:00 18 0 Calma 7 Sudeste 0 -- -- 70
2019-05-22 20:00:00 20.2 2 Sudeste 14 Este 0 -- -- 62
2019-05-22 19:00:00 22 9 Nordeste 30 Este 0 -- -- 49
2019-05-22 18:00:00 24.1 8 Nordeste 22 Nordeste 0 -- -- 43
2019-05-22 17:00:00 24.4 6 Este 16 Nordeste 0 -- -- 40
2019-05-22 16:00:00 24.8 5 Este 13 Nordeste 0 -- -- 38
2019-05-22 15:00:00 23.5 5 Este 22 Nordeste 0 -- -- 41
2019-05-22 14:00:00 24.2 4 Sur 17 Nordeste 0 -- -- 43
2019-05-22 13:00:00 23.2 9 Nordeste 22 Nordeste 0 -- -- 40
2019-05-22 12:00:00 22.4 6 Este 21 Nordeste 0 -- -- 45
2019-05-22 11:00:00 21 3 Este 6 Este 0 -- -- 50
2019-05-22 10:00:00 15.8 0 Calma 4 Norte 0 -- -- 77
2019-05-22 09:00:00 11.9 2 Noroeste 4 Oeste 0 -- -- 89
2019-05-22 08:00:00 8.7 2 Sudoeste 4 Noroeste 0 -- -- 99
2019-05-22 07:00:00 6.3 0 Calma 4 Oeste 0 -- -- 99
2019-05-22 06:00:00 6.6 0 Calma 4 Oeste 0 -- -- 98
2019-05-22 05:00:00 7.1 0 Calma 4 Oeste 0 -- -- 98
2019-05-22 04:00:00 7.9 0 Calma 5 Noroeste 0 -- -- 97
2019-05-22 03:00:00 8.7 0 Calma 4 Oeste 0 -- -- 97
2019-05-22 02:00:00 9.6 0 Calma 10 Oeste 0 -- -- 96
2019-05-22 01:00:00 10.7 3 Nordeste 5 Nordeste 0 -- -- 94
2019-05-22 00:00:00 12.3 3 Oeste 6 Oeste 0 -- -- 91
2019-05-21 23:00:00 13.5 2 Norte 5 Noroeste 0 -- -- 89
2019-05-21 22:00:00 14.2 0 Calma 8 Norte 0 -- -- 87
2019-05-21 21:00:00 15.3 3 Sudoeste 9 Sudoeste 0 -- -- 83
2019-05-21 20:00:00 16.7 5 Oeste 8 Oeste 0 -- -- 74
2019-05-21 19:00:00 17.3 3 Noroeste 6 Norte 0 -- -- 72
2019-05-21 18:00:00 17.7 0 Calma 10 Nordeste 0 -- -- 64
2019-05-21 17:00:00 17 5 Nordeste 10 Nordeste 0 -- -- 70
2019-05-21 16:00:00 17 3 Oeste 21 Sudoeste 0 -- -- 70
2019-05-21 15:00:00 19 5 Este 18 Este 0 -- -- 56
2019-05-21 14:00:00 19.2 6 Este 20 Nordeste 0 -- -- 55
2019-05-21 13:00:00 20.2 13 Este 23 Nordeste 0 -- -- 48
2019-05-21 12:00:00 20.1 6 Nordeste 16 Este 0 -- -- 47
2019-05-21 11:00:00 19.2 4 Este 11 Este 0 -- -- 50
2019-05-21 10:00:00 15.2 2 Sur 6 Noroeste 0 -- -- 70
2019-05-21 09:00:00 12.3 3 Oeste 6 Oeste 0 -- -- 87
2019-05-21 08:00:00 9.4 0 Calma 4 Noroeste 0 -- -- 99
2019-05-21 07:00:00 7.7 0 Calma 5 Oeste 0 -- -- 98
2019-05-21 06:00:00 8.6 0 Calma 3 Oeste 0 -- -- 98
2019-05-21 05:00:00 9.7 0 Calma 4 Oeste 0 -- -- 97
2019-05-21 04:00:00 10 0 Calma 3 Noroeste 0 -- -- 96
2019-05-21 03:00:00 10.6 0 Calma 5 Oeste 0 -- -- 96
2019-05-21 02:00:00 11.2 2 Oeste 6 Oeste 0 -- -- 94
2019-05-21 01:00:00 11.6 3 Sudoeste 5 Sudoeste 0 -- -- 93
2019-05-21 00:00:00 12 2 Oeste 5 Noroeste 0 -- -- 92
2019-05-20 23:00:00 12.1 4 Oeste 7 Sudoeste 0 -- -- 89
2019-05-20 22:00:00 12.5 6 Oeste 11 Sudoeste 0 -- -- 87
2019-05-20 21:00:00 13.5 0 Calma 4 Sudoeste 0 -- -- 88
2019-05-20 20:00:00 14.8 0 Calma 11 Oeste 0.2 -- -- 82
2019-05-20 19:00:00 16.3 0 Calma 9 Este 0 -- -- 69
2019-05-20 18:00:00 17 5 Este 14 Este 0 -- -- 63
2019-05-20 17:00:00 16.7 5 Sudeste 14 Este 0 -- -- 65
2019-05-20 16:00:00 17.1 6 Oeste 17 Este 0 -- -- 67
2019-05-20 15:00:00 17.7 7 Nordeste 25 Este 0 -- -- 57
2019-05-20 14:00:00 19.3 13 Nordeste 27 Nordeste 0 -- -- 53
2019-05-20 13:00:00 18.7 10 Nordeste 23 Este 0 -- -- 54
2019-05-20 12:00:00 18.8 8 Nordeste 16 Este 0 -- -- 53
2019-05-20 11:00:00 17.1 7 Este 17 Nordeste 0 -- -- 55
2019-05-20 10:00:00 13.1 2 Noroeste 4 Norte 0 -- -- 74
2019-05-20 09:00:00 9.6 2 Noroeste 5 Noroeste 0 -- -- 99
2019-05-20 08:00:00 5.8 3 Oeste 6 Sudoeste 0 -- -- 100
2019-05-20 07:00:00 5.7 0 Calma 4 Sudoeste 0 -- -- 99
2019-05-20 06:00:00 5.5 0 Calma 5 Oeste 0 -- -- 99
2019-05-20 05:00:00 5.9 0 Calma 4 Noroeste 0 -- -- 98
2019-05-20 04:00:00 6.5 0 Calma 4 Noroeste 0 -- -- 98
2019-05-20 03:00:00 7.4 2 Oeste 4 Nordeste 0 -- -- 98
2019-05-20 02:00:00 8 0 Calma 5 Oeste 0 -- -- 97
2019-05-20 01:00:00 9.2 0 Calma 4 Oeste 0 -- -- 96
2019-05-20 00:00:00 9.5 2 Este 6 Sudeste 0 -- -- 96
2019-05-19 23:00:00 10 0 Calma 4 Noroeste 0 -- -- 94
2019-05-19 22:00:00 10.6 2 Sudoeste 4 Sudeste 0 -- -- 91
2019-05-19 21:00:00 11.2 2 Sudeste 4 Sur 0 -- -- 88
2019-05-19 20:00:00 13.3 3 Sur 9 Sudoeste 0 -- -- 81
2019-05-19 19:00:00 14.5 4 Nordeste 8 Este 0 -- -- 71
2019-05-19 18:00:00 14.8 3 Sudeste 16 Sur 0 -- -- 69
2019-05-19 17:00:00 13.8 6 Sur 18 Sudoeste 0 -- -- 76
2019-05-19 16:00:00 11.4 9 Sudeste 16 Este 7.8 -- -- 86
2019-05-19 15:00:00 17 5 Este 13 Nordeste 0 -- -- 59
2019-05-19 14:00:00 14.5 2 Sudeste 12 Este 0 -- -- 81
2019-05-19 13:00:00 14.2 5 Este 19 Nordeste 0.6 -- -- 76
2019-05-19 12:00:00 16.2 8 Este 19 Este 0 -- -- 57
2019-05-19 11:00:00 15.7 6 Este 13 Sudeste 0 -- -- 53
2019-05-19 10:00:00 11.8 2 Noroeste 7 Sudoeste 0 -- -- 81
2019-05-19 09:00:00 9 0 Calma 5 Noroeste 0 -- -- 98
2019-05-19 08:00:00 6.6 0 Calma 3 Oeste 0 -- -- 100
2019-05-19 07:00:00 5 0 Calma 5 Oeste 0 -- -- 100
2019-05-19 06:00:00 4.5 3 Oeste 6 Oeste 0 -- -- 100
2019-05-19 05:00:00 4.8 0 Calma 4 Sudoeste 0 -- -- 99
2019-05-19 04:00:00 5.2 3 Oeste 5 Oeste 0 -- -- 99
2019-05-19 03:00:00 5.9 0 Calma 7 Oeste 0 -- -- 99
2019-05-19 02:00:00 6.5 4 Oeste 6 Oeste 0 -- -- 98
2019-05-19 01:00:00 7 0 Calma 4 Noroeste 0 -- -- 98
2019-05-19 00:00:00 8 3 Oeste 6 Oeste 0 -- -- 97
2019-05-18 23:00:00 8.9 6 Sudoeste 9 Sudoeste 0 -- -- 96
2019-05-18 22:00:00 9.8 0 Calma 6 Oeste 0 -- -- 96
2019-05-18 21:00:00 10.3 3 Este 4 Este 0 -- -- 93
2019-05-18 20:00:00 11 2 Sur 5 Nordeste 0 -- -- 91
2019-05-18 19:00:00 11.7 3 Sudeste 10 Sudeste 0.6 -- -- 84
2019-05-18 18:00:00 12 4 Noroeste 11 Este 0.4 -- -- 82
2019-05-18 17:00:00 11.9 5 Este 14 Sudeste 0.2 -- -- 84
2019-05-18 16:00:00 11.4 6 Este 12 Este 0.2 -- -- 85
2019-05-18 15:00:00 12.1 2 Sudeste 23 Este 0.2 -- -- 78
2019-05-18 14:00:00 12.6 8 Este 33 Nordeste 1 -- -- 92
2019-05-18 13:00:00 13 13 Este 33 Nordeste 0.2 -- -- 80
2019-05-18 12:00:00 15.6 11 Este 20 Nordeste 0 -- -- 72
2019-05-18 11:00:00 13.7 4 Este 10 Nordeste 0 -- -- 78
2019-05-18 10:00:00 11.7 3 Nordeste 5 Nordeste 0 -- -- 93
2019-05-18 09:00:00 10.1 0 Calma 5 Sudoeste 0 -- -- 99
2019-05-18 08:00:00 9.4 2 Norte 4 Norte 0 -- -- 99
2019-05-18 07:00:00 9.2 2 Sudoeste 4 Sudoeste 0 -- -- 99
2019-05-18 06:00:00 9.2 0 Calma 5 Oeste 0 -- -- 99
2019-05-18 05:00:00 9.2 0 Calma 3 Sudoeste 0.2 -- -- 98
2019-05-18 04:00:00 9.3 0 Calma 3 Oeste 0.2 -- -- 98
2019-05-18 03:00:00 9.3 0 Calma 3 Noroeste 0 -- -- 98
2019-05-18 02:00:00 9.3 0 Calma 4 Noroeste 0.2 -- -- 97
2019-05-18 01:00:00 9.4 0 Calma 4 Oeste 0.6 -- -- 97
2019-05-18 00:00:00 9.3 0 Calma 4 Nordeste 0 -- -- 96
2019-05-17 23:00:00 9.1 0 Calma 4 Noroeste 0 -- -- 95
2019-05-17 22:00:00 9 0 Calma 4 Sudoeste 0 -- -- 93
2019-05-17 21:00:00 10.5 0 Calma 7 Oeste 0 -- -- 88
2019-05-17 20:00:00 11.8 3 Oeste 8 Noroeste 0 -- -- 77
2019-05-17 19:00:00 12.1 3 Norte 12 Oeste 0 -- -- 81
2019-05-17 18:00:00 12.4 4 Oeste 10 Este 0 -- -- 74
2019-05-17 17:00:00 12.3 3 Este 21 Nordeste 0 -- -- 76
2019-05-17 16:00:00 12.8 11 Este 22 Este 0 -- -- 76
2019-05-17 15:00:00 14.5 8 Este 14 Sudeste 0 -- -- 72
2019-05-17 14:00:00 12.2 3 Oeste 8 Oeste 0.2 -- -- 85
2019-05-17 13:00:00 11 0 Calma 6 Nordeste 0 -- -- 88
2019-05-17 12:00:00 9.7 4 Oeste 7 Oeste 1.2 -- -- 92
2019-05-17 11:00:00 9.1 2 Este 5 Nordeste 0.4 -- -- 92
2019-05-17 10:00:00 8.7 0 Calma 9 Sudoeste 1 -- -- 93
2019-05-17 09:00:00 8.1 6 Sudoeste 10 Sudoeste 2.6 -- -- 93
2019-05-17 08:00:00 9.2 3 Sudoeste 13 Oeste 2.8 -- -- 91
2019-05-17 07:00:00 10.7 4 Oeste 9 Sudoeste 0 -- -- 96
2019-05-17 06:00:00 10.5 0 Calma 5 Sudoeste 0 -- -- 95
2019-05-17 05:00:00 10.9 0 Calma 4 Este 0 -- -- 94
2019-05-17 04:00:00 11.2 0 Calma 4 Sudeste 0 -- -- 93
2019-05-17 03:00:00 12.4 3 Sudeste 22 Este 1.2 -- -- 92
2019-05-17 02:00:00 13.9 5 Este 12 Este 0 -- -- 88
2019-05-17 01:00:00 14 2 Sur 16 Este 0 -- -- 85
2019-05-17 00:00:00 14.6 6 Este 13 Nordeste 0 -- -- 82
2019-05-16 23:00:00 15.5 5 Este 14 Este 0 -- -- 78
2019-05-16 22:00:00 16.3 5 Sudeste 13 Este 0 -- -- 72
2019-05-16 21:00:00 17.8 4 Sudeste 21 Este 0 -- -- 66
2019-05-16 20:00:00 18.9 10 Este 27 Este 0 -- -- 62
2019-05-16 19:00:00 21.2 15 Este 28 Nordeste 0 -- -- 54
2019-05-16 18:00:00 22.7 8 Sudeste 22 Este 0 -- -- 46
2019-05-16 17:00:00 22.6 4 Sur 23 Sur 0 -- -- 44
2019-05-16 16:00:00 24.6 6 Noroeste 22 Oeste 0 -- -- 37
2019-05-16 15:00:00 23.5 7 Sur 26 Sudoeste 0 -- -- 39
2019-05-16 14:00:00 22.9 5 Sur 23 Sur 0 -- -- 42
2019-05-16 13:00:00 22.6 8 Oeste 27 Sudoeste 0 -- -- 46
2019-05-16 12:00:00 20.6 14 Sudoeste 24 Sudoeste 0 -- -- 47
2019-05-16 11:00:00 19.6 3 Noroeste 10 Oeste 0 -- -- 45
2019-05-16 10:00:00 13.8 3 Este 7 Oeste 0 -- -- 73
2019-05-16 09:00:00 10.6 6 Oeste 8 Oeste 0 -- -- 83
2019-05-16 08:00:00 7.3 0 Calma 4 Noroeste 0 -- -- 95
2019-05-16 07:00:00 4.7 0 Calma 4 Oeste 0 -- -- 97
2019-05-16 06:00:00 4.5 2 Oeste 4 Noroeste 0 -- -- 96
2019-05-16 05:00:00 4.8 0 Calma 3 Oeste 0 -- -- 95
2019-05-16 04:00:00 5.2 0 Calma 5 Oeste 0 -- -- 94
2019-05-16 03:00:00 5.9 0 Calma 4 Oeste 0 -- -- 92
2019-05-16 02:00:00 6.6 0 Calma 4 Oeste 0 -- -- 90
2019-05-16 01:00:00 7.3 0 Calma 5 Noroeste 0 -- -- 87
2019-05-16 00:00:00 8.2 2 Norte 6 Noroeste 0 -- -- 82
2019-05-15 23:00:00 9.5 0 Calma 8 Oeste 0 -- -- 76
2019-05-15 22:00:00 11.5 3 Oeste 10 Sudeste 0 -- -- 66
2019-05-15 21:00:00 13.6 4 Sudeste 17 Este 0 -- -- 54
2019-05-15 20:00:00 16.1 7 Este 24 Este 0 -- -- 50
2019-05-15 19:00:00 16.7 13 Este 27 Este 0 -- -- 48
2019-05-15 18:00:00 18.1 10 Este 22 Nordeste 0 -- -- 47
2019-05-15 17:00:00 17.9 12 Nordeste 26 Este 0 -- -- 46
2019-05-15 16:00:00 17.6 15 Este 28 Este 0 -- -- 44
2019-05-15 15:00:00 17.7 15 Este 32 Este 0 -- -- 43
2019-05-15 14:00:00 17.9 18 Nordeste 32 Nordeste 0 -- -- 43
2019-05-15 13:00:00 18.2 11 Este 28 Nordeste 0 -- -- 46
2019-05-15 12:00:00 18.2 13 Nordeste 25 Nordeste 0 -- -- 44
2019-05-15 11:00:00 17.2 13 Nordeste 28 Nordeste 0 -- -- 54
2019-05-15 10:00:00 15.8 5 Este 15 Nordeste 0 -- -- 66
2019-05-15 09:00:00 13.2 2 Norte 6 Oeste 0 -- -- 87
2019-05-15 08:00:00 9.1 3 Oeste 5 Oeste 0 -- -- 98
2019-05-15 07:00:00 7.4 0 Calma 4 Sudoeste 0 -- -- 98
2019-05-15 06:00:00 7.6 2 Norte 4 Oeste 0 -- -- 97
2019-05-15 05:00:00 8.3 2 Noroeste 6 Oeste 0 -- -- 97
2019-05-15 04:00:00 8.5 0 Calma 4 Sudoeste 0 -- -- 96
2019-05-15 03:00:00 9.4 0 Calma 6 Sudoeste 0 -- -- 95
2019-05-15 02:00:00 10 0 Calma 4 Oeste 0 -- -- 94
2019-05-15 01:00:00 10.8 0 Calma 4 Oeste 0 -- -- 93
2019-05-15 00:00:00 11.8 2 Oeste 6 Oeste 0 -- -- 90
2019-05-14 23:00:00 13.2 0 Calma 5 Noroeste 0 -- -- 84
2019-05-14 22:00:00 15 0 Calma 12 Este 0 -- -- 77
2019-05-14 21:00:00 17.4 8 Sudeste 14 Sudeste 0 -- -- 65
2019-05-14 20:00:00 20.1 6 Este 18 Nordeste 0 -- -- 56
2019-05-14 19:00:00 21.4 9 Este 21 Nordeste 0 -- -- 50
2019-05-14 18:00:00 22 9 Este 20 Este 0 -- -- 48
2019-05-14 17:00:00 21.8 13 Este 33 Este 0 -- -- 47
2019-05-14 16:00:00 21.4 18 Este 36 Este 0 -- -- 47
2019-05-14 15:00:00 22.8 16 Este 32 Este 0 -- -- 45
2019-05-14 14:00:00 23.1 9 Nordeste 24 Nordeste 0 -- -- 39
2019-05-14 13:00:00 21.9 7 Este 17 Este 0 -- -- 39
2019-05-14 12:00:00 20.5 10 Este 18 Nordeste 0 -- -- 43
2019-05-14 11:00:00 19.3 6 Este 13 Nordeste 0 -- -- 42
2019-05-14 10:00:00 14.4 2 Sur 6 Noroeste 0 -- -- 66
2019-05-14 09:00:00 10.9 0 Calma 4 Noroeste 0 -- -- 80
2019-05-14 08:00:00 7 2 Noroeste 4 Oeste 0 -- -- 95
2019-05-14 07:00:00 4.6 0 Calma 4 Oeste 0 -- -- 96
2019-05-14 06:00:00 4.9 2 Oeste 4 Oeste 0 -- -- 95
2019-05-14 05:00:00 5.3 0 Calma 4 Noroeste 0 -- -- 93
2019-05-14 04:00:00 5.8 0 Calma 3 Oeste 0 -- -- 92
2019-05-14 03:00:00 6.5 0 Calma 5 Sudoeste 0 -- -- 88
2019-05-14 02:00:00 7.5 0 Calma 5 Oeste 0 -- -- 83
2019-05-14 01:00:00 8.2 0 Calma 3 Oeste 0 -- -- 79
2019-05-14 00:00:00 9.8 2 Sudoeste 8 Noroeste 0 -- -- 72
2019-05-13 23:00:00 11.7 0 Calma 8 Oeste 0 -- -- 63
2019-05-13 22:00:00 14.6 4 Oeste 10 Sudeste 0 -- -- 50
2019-05-13 21:00:00 17.7 3 Sudeste 17 Sudeste 0 -- -- 38
2019-05-13 20:00:00 21.4 5 Sudeste 15 Este 0 -- -- 26
2019-05-13 19:00:00 22.6 7 Este 19 Este 0 -- -- 21
2019-05-13 18:00:00 23.8 9 Este 22 Nordeste 0 -- -- 21
2019-05-13 17:00:00 24.4 10 Este 25 Nordeste 0 -- -- 18
2019-05-13 16:00:00 24.6 4 Sur 24 Sudeste 0 -- -- 19
2019-05-13 15:00:00 24.1 6 Sudoeste 26 Nordeste 0 -- -- 17
2019-05-13 14:00:00 23 11 Este 24 Este 0 -- -- 19
2019-05-13 13:00:00 22.8 6 Este 15 Nordeste 0 -- -- 22
2019-05-13 12:00:00 21.6 5 Norte 12 Sudeste 0 -- -- 27
2019-05-13 11:00:00 19.1 4 Este 9 Nordeste 0 -- -- 41
2019-05-13 10:00:00 14.5 3 Sudoeste 8 Oeste 0 -- -- 54
2019-05-13 09:00:00 10.8 4 Oeste 8 Sudoeste 0 -- -- 64
2019-05-13 08:00:00 6.9 5 Sudoeste 12 Noroeste 0 -- -- 84
2019-05-13 07:00:00 4.4 3 Norte 15 Noroeste 0 -- -- 90
2019-05-13 06:00:00 4.8 4 Sudeste 8 Norte 0 -- -- 88
2019-05-13 05:00:00 5.3 2 Sudoeste 8 Oeste 0 -- -- 84
2019-05-13 04:00:00 6.7 3 Nordeste 11 Norte 0 -- -- 76
2019-05-13 03:00:00 7.9 8 Sudoeste 16 Oeste 0 -- -- 70
2019-05-13 02:00:00 9.6 2 Oeste 14 Sudoeste 0 -- -- 56
2019-05-13 01:00:00 11.2 7 Sudoeste 30 Sudoeste 0 -- -- 41
2019-05-13 00:00:00 13.7 12 Sudoeste 24 Oeste 0 -- -- 28
2019-05-12 23:00:00 18.5 11 Norte 31 Norte 0 -- -- 18
2019-05-12 22:00:00 16.1 8 Oeste 18 Noroeste 0 -- -- 23
2019-05-12 21:00:00 16.3 7 Oeste 32 Oeste 0 -- -- 36
2019-05-12 20:00:00 21.3 7 Nordeste 20 Nordeste 0 -- -- 17
2019-05-12 19:00:00 23 6 Oeste 23 Norte 0 -- -- 16
2019-05-12 18:00:00 23.9 8 Norte 21 Norte 0 -- -- 16
2019-05-12 17:00:00 24.2 8 Norte 27 Este 0 -- -- 16
2019-05-12 16:00:00 23.3 6 Sudeste 22 Este 0 -- -- 34
2019-05-12 15:00:00 22.5 10 Este 21 Este 0 -- -- 44
2019-05-12 14:00:00 21.4 4 Sudeste 18 Este 0 -- -- 46
2019-05-12 13:00:00 19.9 6 Este 19 Este 0 -- -- 60
2019-05-12 12:00:00 18.5 9 Nordeste 20 Este 0 -- -- 63
2019-05-12 11:00:00 17.3 5 Sudeste 12 Nordeste 0 -- -- 66
2019-05-12 10:00:00 13.2 3 Norte 6 Nordeste 0 -- -- 88
2019-05-12 09:00:00 10.2 0 Calma 4 Norte 0 -- -- 100
2019-05-12 08:00:00 7.3 2 Norte 6 Oeste 0 -- -- 100
2019-05-12 07:00:00 6.7 2 Sudoeste 6 Noroeste 0 -- -- 100
2019-05-12 06:00:00 6.9 4 Oeste 10 Sudoeste 0 -- -- 99
2019-05-12 05:00:00 7.6 5 Sudoeste 11 Oeste 0 -- -- 99
2019-05-12 04:00:00 8.5 4 Sudoeste 12 Oeste 0 -- -- 99
2019-05-12 03:00:00 8.6 7 Nordeste 23 Oeste 0 -- -- 99
2019-05-12 02:00:00 9.2 4 Oeste 8 Oeste 0 -- -- 97
2019-05-12 01:00:00 10.3 4 Oeste 9 Norte 0 -- -- 98
2019-05-12 00:00:00 10.2 2 Norte 10 Oeste 0 -- -- 98
2019-05-11 23:00:00 11.1 3 Norte 9 Sudoeste 0 -- -- 97
2019-05-11 22:00:00 11.8 0 Calma 9 Nordeste 0 -- -- 95
2019-05-11 21:00:00 13.4 4 Sudoeste 10 Oeste 0 -- -- 91
2019-05-11 20:00:00 16.4 3 Sudoeste 8 Oeste 0 -- -- 83
2019-05-11 19:00:00 16.6 3 Noroeste 7 Oeste 0 -- -- 77
2019-05-11 18:00:00 14.3 2 Sudoeste 9 Noroeste 3 -- -- 94
2019-05-11 17:00:00 14.1 3 Sur 15 Nordeste 3 -- -- 92
2019-05-11 16:00:00 15.3 4 Sudeste 18 Este 0.6 -- -- 84
2019-05-11 15:00:00 17 8 Este 27 Este 0 -- -- 75
2019-05-11 14:00:00 18 16 Este 29 Este 0 -- -- 70
2019-05-11 13:00:00 18.6 8 Este 19 Nordeste 0 -- -- 72
2019-05-11 12:00:00 18.3 8 Este 25 Este 0 -- -- 73
2019-05-11 11:00:00 18.6 8 Este 21 Nordeste 0 -- -- 71
2019-05-11 10:00:00 17.6 0 Calma 5 Sudoeste 0 -- -- 83
2019-05-11 09:00:00 15.2 2 Oeste 4 Oeste 0 -- -- 96
2019-05-11 08:00:00 12 0 Calma 5 Sudoeste 0 -- -- 100
2019-05-11 07:00:00 10.7 3 Sudoeste 5 Noroeste 0 -- -- 99
2019-05-11 06:00:00 11 0 Calma 4 Sudoeste 0 -- -- 98
2019-05-11 05:00:00 12.2 3 Noroeste 8 Oeste 0 -- -- 97
2019-05-11 04:00:00 12.7 3 Oeste 6 Oeste 0 -- -- 98
2019-05-11 03:00:00 12.7 2 Noroeste 7 Oeste 0 -- -- 98
2019-05-11 02:00:00 12.9 3 Oeste 6 Oeste 0 -- -- 97
2019-05-11 01:00:00 13.8 0 Calma 6 Sudoeste 0 -- -- 96
2019-05-11 00:00:00 14.4 0 Calma 6 Oeste 0 -- -- 96
2019-05-10 23:00:00 14.4 0 Calma 6 Nordeste 0 -- -- 95
2019-05-10 22:00:00 15 3 Nordeste 5 Norte 0 -- -- 93
2019-05-10 21:00:00 15.9 0 Calma 4 Norte 0 -- -- 92
2019-05-10 20:00:00 16.5 0 Calma 5 Sudeste 0 -- -- 91
2019-05-10 19:00:00 16.9 3 Sudeste 10 Sudeste 0 -- -- 88
2019-05-10 18:00:00 18.6 5 Este 10 Nordeste 0.4 -- -- 80
2019-05-10 17:00:00 19.2 6 Este 21 Nordeste 1.6 -- -- 74
2019-05-10 16:00:00 21.7 8 Este 23 Nordeste 0 -- -- 58
2019-05-10 15:00:00 22.2 12 Nordeste 23 Este 0 -- -- 54
2019-05-10 14:00:00 24 7 Este 15 Este 0 -- -- 47
2019-05-10 13:00:00 21.9 5 Este 13 Nordeste 0 -- -- 53
2019-05-10 12:00:00 20.9 4 Este 9 Norte 0 -- -- 51
2019-05-10 11:00:00 17.6 0 Calma 4 Noroeste 0 -- -- 60
2019-05-10 10:00:00 15.1 0 Calma 4 Sudoeste 0 -- -- 74
2019-05-10 09:00:00 11.8 2 Oeste 5 Oeste 0 -- -- 89
2019-05-10 08:00:00 10.4 2 Norte 7 Oeste 0 -- -- 93
2019-05-10 07:00:00 9.6 3 Oeste 8 Sudoeste 0 -- -- 95
2019-05-10 06:00:00 9.7 0 Calma 4 Noroeste 0 -- -- 94
2019-05-10 05:00:00 10.7 0 Calma 7 Oeste 0 -- -- 91
2019-05-10 04:00:00 11.5 2 Norte 6 Sudeste 0 -- -- 90
2019-05-10 03:00:00 12 3 Este 8 Oeste 0 -- -- 88
2019-05-10 02:00:00 12.6 0 Calma 4 Norte 0 -- -- 85
2019-05-10 01:00:00 12.6 0 Calma 4 Este 0 -- -- 86
2019-05-10 00:00:00 12.9 0 Calma 5 Noroeste 0 -- -- 84
2019-05-09 23:00:00 12.9 0 Calma 4 Nordeste 0 -- -- 83
2019-05-09 22:00:00 14.1 0 Calma 6 Noroeste 0 -- -- 77
2019-05-09 21:00:00 15.6 3 Este 13 Nordeste 0 -- -- 70
2019-05-09 20:00:00 16.7 8 Este 22 Nordeste 0 -- -- 66
2019-05-09 19:00:00 17.5 7 Este 21 Este 0 -- -- 62
2019-05-09 18:00:00 17.9 11 Nordeste 27 Nordeste 0 -- -- 59
2019-05-09 17:00:00 19.2 14 Este 31 Nordeste 0 -- -- 53
2019-05-09 16:00:00 20.6 14 Este 30 Nordeste 0 -- -- 50
2019-05-09 15:00:00 20.8 13 Este 26 Este 0 -- -- 51
2019-05-09 14:00:00 19.7 7 Este 22 Nordeste 0 -- -- 43
2019-05-09 13:00:00 20 8 Nordeste 22 Este 0 -- -- 43
2019-05-09 12:00:00 19.4 7 Nordeste 18 Nordeste 0 -- -- 47
2019-05-09 11:00:00 17.8 6 Nordeste 17 Nordeste 0 -- -- 48
2019-05-09 10:00:00 15.1 4 Norte 10 Norte 0 -- -- 66
2019-05-09 09:00:00 12.3 0 Calma 3 Oeste 0 -- -- 87
2019-05-09 08:00:00 9.5 2 Noroeste 4 Noroeste 0 -- -- 98
2019-05-09 07:00:00 8 0 Calma 3 Noroeste 0 -- -- 98
2019-05-09 06:00:00 8.8 0 Calma 3 Noroeste 0 -- -- 96
2019-05-09 05:00:00 9.7 0 Calma 3 Norte 0 -- -- 96
2019-05-09 04:00:00 10.4 0 Calma 3 Noroeste 0 -- -- 95
2019-05-09 03:00:00 11.3 2 Nordeste 7 Nordeste 0 -- -- 95
2019-05-09 02:00:00 12.1 0 Calma 5 Nordeste 0 -- -- 95
2019-05-09 01:00:00 12.8 2 Noroeste 8 Nordeste 0 -- -- 93
2019-05-09 00:00:00 13.2 4 Norte 20 Sudeste 0 -- -- 90
2019-05-08 23:00:00 13.7 13 Sudeste 21 Sudeste 0 -- -- 91
2019-05-08 22:00:00 14.4 4 Sudoeste 10 Sudeste 0 -- -- 89
2019-05-08 21:00:00 15.6 3 Sur 11 Oeste 0 -- -- 89
2019-05-08 20:00:00 18 4 Oeste 37 Oeste 1.6 -- -- 78
2019-05-08 19:00:00 23.2 10 Oeste 36 Oeste 0 -- -- 45
2019-05-08 18:00:00 24.6 15 Oeste 28 Oeste 0 -- -- 42
2019-05-08 17:00:00 24.2 14 Oeste 47 Sudoeste 0 -- -- 42
2019-05-08 16:00:00 25.6 15 Oeste 32 Sudoeste 0 -- -- 42
2019-05-08 15:00:00 25.3 6 Sur 28 Sudoeste 0 -- -- 49
2019-05-08 14:00:00 24.1 11 Sudoeste 38 Sudoeste 0 -- -- 47
2019-05-08 13:00:00 23.5 14 Sudoeste 27 Oeste 0 -- -- 49
2019-05-08 12:00:00 21.7 6 Nordeste 14 Este 0 -- -- 55
2019-05-08 11:00:00 19.6 3 Sudoeste 16 Sudoeste 0 -- -- 62
2019-05-08 10:00:00 17.7 5 Noroeste 15 Oeste 0 -- -- 70
2019-05-08 09:00:00 14.4 6 Oeste 15 Oeste 0 -- -- 83
2019-05-08 08:00:00 14.6 8 Sudoeste 24 Sudeste 0 -- -- 79
2019-05-08 07:00:00 14.3 6 Sur 17 Sudeste 0 -- -- 79
2019-05-08 06:00:00 13.9 5 Sudoeste 20 Sudoeste 0 -- -- 82
2019-05-08 05:00:00 13.5 3 Sudoeste 9 Sudoeste 0 -- -- 86
2019-05-08 04:00:00 13.8 2 Sudoeste 9 Sudeste 0 -- -- 85
2019-05-08 03:00:00 14.4 5 Este 8 Sudeste 0 -- -- 84
2019-05-08 02:00:00 14.1 2 Sudeste 9 Oeste 0 -- -- 88
2019-05-08 01:00:00 13.5 0 Calma 6 Noroeste 0 -- -- 91
2019-05-08 00:00:00 14 0 Calma 8 Este 0 -- -- 89
2019-05-07 23:00:00 14.6 2 Este 13 Este 0 -- -- 86
2019-05-07 22:00:00 15.3 6 Este 15 Sudeste 0 -- -- 83
2019-05-07 21:00:00 16.1 10 Sudeste 20 Este 0 -- -- 80
2019-05-07 20:00:00 17.1 10 Sudeste 28 Sudeste 0 -- -- 76
2019-05-07 19:00:00 19.3 12 Este 26 Este 0 -- -- 69
2019-05-07 18:00:00 22 11 Este 27 Sudeste 0 -- -- 60
2019-05-07 17:00:00 21.5 9 Este 27 Este 0 -- -- 61
2019-05-07 16:00:00 22.1 10 Este 21 Este 0 -- -- 57
2019-05-07 15:00:00 21.6 9 Este 19 Este 0 -- -- 51
2019-05-07 14:00:00 20 9 Este 16 Nordeste 0 -- -- 54
2019-05-07 13:00:00 18.7 10 Este 18 Este 0 -- -- 54
2019-05-07 12:00:00 17.8 8 Este 16 Nordeste 0 -- -- 55
2019-05-07 11:00:00 16.2 7 Este 13 Nordeste 0 -- -- 58
2019-05-07 10:00:00 12.2 2 Este 5 Nordeste 0 -- -- 75
2019-05-07 09:00:00 8.5 3 Noroeste 6 Oeste 0 -- -- 94
2019-05-07 08:00:00 5.7 3 Oeste 4 Norte 0 -- -- 98
2019-05-07 07:00:00 3.9 0 Calma 5 Sudoeste 0 -- -- 98
2019-05-07 06:00:00 4.2 3 Oeste 6 Noroeste 0 -- -- 97
2019-05-07 05:00:00 5 2 Noroeste 4 Oeste 0 -- -- 97
2019-05-07 04:00:00 5.4 0 Calma 5 Oeste 0 -- -- 96
2019-05-07 03:00:00 6.2 4 Sudoeste 5 Sudoeste 0 -- -- 95
2019-05-07 02:00:00 7.1 0 Calma 3 Nordeste 0 -- -- 93
2019-05-07 01:00:00 8.3 3 Oeste 5 Oeste 0 -- -- 91
2019-05-07 00:00:00 9 0 Calma 4 Noroeste 0 -- -- 87
2019-05-06 23:00:00 9.8 0 Calma 5 Nordeste 0 -- -- 83
2019-05-06 22:00:00 11.1 0 Calma 4 Norte 0 -- -- 77
2019-05-06 21:00:00 13.4 0 Calma 14 Este 0 -- -- 67
2019-05-06 20:00:00 15.9 9 Nordeste 23 Este 0 -- -- 54
2019-05-06 19:00:00 17.2 13 Nordeste 30 Este 0 -- -- 52
2019-05-06 18:00:00 18.5 12 Este 26 Este 0 -- -- 42
2019-05-06 17:00:00 18.7 14 Nordeste 26 Este 0 -- -- 39
2019-05-06 16:00:00 18.4 13 Nordeste 30 Este 0 -- -- 41
2019-05-06 15:00:00 18 17 Este 31 Este 0 -- -- 39
2019-05-06 14:00:00 18.1 12 Este 24 Este 0 -- -- 41
2019-05-06 13:00:00 17.3 9 Nordeste 18 Este 0 -- -- 34
2019-05-06 12:00:00 15.8 7 Este 14 Este 0 -- -- 36
2019-05-06 11:00:00 14.2 3 Sudeste 10 Este 0 -- -- 45
2019-05-06 10:00:00 8.6 2 Sudoeste 7 Sudoeste 0 -- -- 61
2019-05-06 09:00:00 4.5 3 Oeste 5 Oeste 0 -- -- 83
2019-05-06 08:00:00 1.2 0 Calma 6 Oeste 0 -- -- 97
2019-05-06 07:00:00 -0.6 0 Calma 8 Norte 0 -- -- 96
2019-05-06 06:00:00 -0.2 0 Calma 8 Noroeste 0 -- -- 96
2019-05-06 05:00:00 0.3 0 Calma 8 Oeste 0 -- -- 95
2019-05-06 04:00:00 1 3 Oeste 6 Oeste 0 -- -- 94
2019-05-06 03:00:00 1.6 4 Oeste 6 Sudoeste 0 -- -- 92
2019-05-06 02:00:00 2.3 2 Oeste 5 Noroeste 0 -- -- 89
2019-05-06 01:00:00 3.4 2 Sudeste 4 Nordeste 0 -- -- 85
2019-05-06 00:00:00 4.7 2 Noroeste 8 Norte 0 -- -- 78
2019-05-05 23:00:00 6.3 2 Oeste 9 Oeste 0 -- -- 71
2019-05-05 22:00:00 8.6 5 Oeste 8 Oeste 0 -- -- 58
2019-05-05 21:00:00 11.9 3 Sur 12 Sudoeste 0 -- -- 55
2019-05-05 20:00:00 15.4 5 Sur 22 Noroeste 0 -- -- 42
2019-05-05 19:00:00 18.2 6 Noroeste 24 Noroeste 0 -- -- 17
2019-05-05 18:00:00 17.9 11 Nordeste 27 Norte 0 -- -- 16
2019-05-05 17:00:00 18.2 12 Nordeste 27 Este 0 -- -- 20
2019-05-05 16:00:00 18.4 11 Norte 30 Oeste 0 -- -- 15
2019-05-05 15:00:00 18.1 10 Norte 37 Nordeste 0 -- -- 17
2019-05-05 14:00:00 17.9 10 Noroeste 23 Noroeste 0 -- -- 17
2019-05-05 13:00:00 16.8 9 Norte 35 Este 0 -- -- 19
2019-05-05 12:00:00 16.2 10 Norte 24 Noroeste 0 -- -- 20
2019-05-05 11:00:00 15 7 Noroeste 22 Oeste 0 -- -- 21
2019-05-05 10:00:00 11.7 6 Oeste 11 Noroeste 0 -- -- 34
2019-05-05 09:00:00 8.2 2 Sudeste 9 Oeste 0 -- -- 66
2019-05-05 08:00:00 3.7 3 Sudoeste 9 Noroeste 0 -- -- 90
2019-05-05 07:00:00 1.8 3 Sur 10 Norte 0 -- -- 92
2019-05-05 06:00:00 2.6 4 Oeste 13 Sudoeste 0 -- -- 92
2019-05-05 05:00:00 3.9 3 Oeste 15 Oeste 0 -- -- 88
2019-05-05 04:00:00 6.4 4 Este 21 Nordeste 0 -- -- 75
2019-05-05 03:00:00 7.5 4 Sudeste 11 Sudeste 0.4 -- -- 93
2019-05-05 02:00:00 8.2 5 Oeste 9 Oeste 2 -- -- 94
2019-05-05 01:00:00 8.2 0 Calma 6 Oeste 0 -- -- 92
2019-05-05 00:00:00 8.3 2 Sudoeste 5 Oeste 0 -- -- 88
2019-05-04 23:00:00 10 0 Calma 7 Sudoeste 0 -- -- 79
2019-05-04 22:00:00 12.6 4 Sudoeste 13 Sur 0 -- -- 63
2019-05-04 21:00:00 13.1 4 Sur 10 Sudeste 0 -- -- 61
2019-05-04 20:00:00 14 2 Sudeste 13 Sudeste 0 -- -- 57
2019-05-04 19:00:00 15.3 5 Este 17 Este 0 -- -- 55
2019-05-04 18:00:00 16.3 6 Este 22 Nordeste 0 -- -- 59
2019-05-04 17:00:00 16.8 9 Nordeste 21 Este 0 -- -- 54
2019-05-04 16:00:00 18.9 6 Sudoeste 19 Sudoeste 0 -- -- 44
2019-05-04 15:00:00 18.4 8 Este 20 Nordeste 0 -- -- 50
2019-05-04 14:00:00 18.1 5 Este 17 Nordeste 0 -- -- 46
2019-05-04 13:00:00 18.1 8 Nordeste 14 Nordeste 0 -- -- 43
2019-05-04 12:00:00 17 6 Nordeste 12 Nordeste 0 -- -- 51
2019-05-04 11:00:00 14.1 3 Oeste 6 Oeste 0 -- -- 63
2019-05-04 10:00:00 8.7 2 Sudoeste 10 Sudoeste 0 -- -- 100
2019-05-04 09:00:00 5.3 3 Oeste 5 Norte 0 -- -- 100
2019-05-04 08:00:00 3.2 0 Calma 5 Noroeste 0 -- -- 100
2019-05-04 07:00:00 2.4 2 Oeste 6 Noroeste 0 -- -- 100
2019-05-04 06:00:00 3 5 Oeste 7 Sudoeste 0 -- -- 100
2019-05-04 05:00:00 3.2 3 Sudoeste 6 Nordeste 0 -- -- 100
2019-05-04 04:00:00 3.4 3 Norte 6 Oeste 0 -- -- 100
2019-05-04 03:00:00 4.1 3 Oeste 8 Noroeste 0 -- -- 99
2019-05-04 02:00:00 4.8 3 Oeste 12 Oeste 0 -- -- 100
2019-05-04 01:00:00 5.5 3 Oeste 6 Oeste 0 -- -- 99
2019-05-04 00:00:00 6.4 2 Norte 6 Noroeste 0 -- -- 99
2019-05-03 23:00:00 7.3 6 Oeste 9 Oeste 0 -- -- 98
2019-05-03 22:00:00 7.6 0 Calma 3 Noroeste 0 -- -- 96
2019-05-03 21:00:00 9.4 2 Sudeste 6 Sudoeste 0 -- -- 93
2019-05-03 20:00:00 10 0 Calma 4 Sur 0 -- -- 94
2019-05-03 19:00:00 10.6 3 Norte 9 Sudoeste 0 -- -- 89
2019-05-03 18:00:00 10.5 4 Sudoeste 6 Sudoeste 0.6 -- -- 86
2019-05-03 17:00:00 10.1 4 Sudeste 13 Sudeste 0.8 -- -- 90
2019-05-03 16:00:00 9.3 7 Sudeste 18 Sudeste 2.4 -- -- 94
2019-05-03 15:00:00 9.5 8 Este 17 Sudeste 3.2 -- -- 93
2019-05-03 14:00:00 10.4 6 Este 11 Este 4.2 -- -- 95
2019-05-03 13:00:00 11 0 Calma 14 Este 2.4 -- -- 92
2019-05-03 12:00:00 11.5 7 Sudeste 16 Este 0.2 -- -- 88
2019-05-03 11:00:00 12 2 Este 5 Nordeste 0 -- -- 92
2019-05-03 10:00:00 11.7 0 Calma 6 Oeste 0 -- -- 93
2019-05-03 09:00:00 10.8 0 Calma 3 Noroeste 0 -- -- 98
2019-05-03 08:00:00 10.1 0 Calma 3 Nordeste 0 -- -- 99
2019-05-03 07:00:00 9.8 0 Calma 3 Sudoeste 0 -- -- 99
2019-05-03 06:00:00 10.1 0 Calma 3 Oeste 0.2 -- -- 99
2019-05-03 05:00:00 10.4 2 Oeste 5 Oeste 0.8 -- -- 99
2019-05-03 04:00:00 10.4 0 Calma 5 Sudoeste 0 -- -- 99
2019-05-03 03:00:00 10.5 0 Calma 4 Sudoeste 0 -- -- 99
2019-05-03 02:00:00 10.6 0 Calma 6 Sudoeste 1.2 -- -- 98
2019-05-03 01:00:00 10.9 0 Calma 5 Sudoeste 0.4 -- -- 98
2019-05-03 00:00:00 11.2 2 Sudoeste 8 Sudoeste 1 -- -- 97
2019-05-02 23:00:00 11.4 4 Sudoeste 9 Sudoeste 0.2 -- -- 97
2019-05-02 22:00:00 11.5 0 Calma 4 Sudoeste 0 -- -- 98
2019-05-02 21:00:00 11.8 3 Sudoeste 5 Sudoeste 0.2 -- -- 97
2019-05-02 20:00:00 12 0 Calma 4 Nordeste 0 -- -- 95
2019-05-02 19:00:00 12.4 2 Sudeste 4 Este 0.2 -- -- 94
2019-05-02 18:00:00 12.3 0 Calma 6 Este 2.6 -- -- 94
2019-05-02 17:00:00 12.3 4 Sudeste 13 Este 0.4 -- -- 92
2019-05-02 16:00:00 12.7 6 Este 27 Sudeste 1.6 -- -- 89
2019-05-02 15:00:00 14.6 7 Este 27 Nordeste 0.6 -- -- 83
2019-05-02 14:00:00 16.1 12 Nordeste 24 Nordeste 0 -- -- 82
2019-05-02 13:00:00 15.9 10 Este 19 Este 0 -- -- 85
2019-05-02 12:00:00 17.6 6 Este 14 Nordeste 0 -- -- 74
2019-05-02 11:00:00 15.7 0 Calma 7 Oeste 0 -- -- 84
2019-05-02 10:00:00 13.7 2 Sudoeste 6 Noroeste 0 -- -- 95
2019-05-02 09:00:00 12.7 3 Noroeste 6 Noroeste 0 -- -- 98
2019-05-02 08:00:00 12.3 4 Sudoeste 7 Sudoeste 0 -- -- 98
2019-05-02 07:00:00 12.1 2 Noroeste 4 Sudoeste 0 -- -- 98
2019-05-02 06:00:00 12.5 0 Calma 4 Noroeste 1.4 -- -- 98
2019-05-02 05:00:00 13.1 0 Calma 10 Oeste 2.2 -- -- 98
2019-05-02 04:00:00 13.3 0 Calma 3 Este 1.2 -- -- 98
2019-05-02 03:00:00 13.4 0 Calma 3 Oeste 0 -- -- 97
2019-05-02 02:00:00 13.5 0 Calma 6 Sudoeste 0.2 -- -- 97
2019-05-02 01:00:00 13.9 0 Calma 3 Nordeste 0.2 -- -- 96
2019-05-02 00:00:00 14.3 0 Calma 6 Sudoeste 1.2 -- -- 94
2019-05-01 23:00:00 14.8 0 Calma 8 Sudoeste 0.8 -- -- 91
2019-05-01 22:00:00 15.9 4 Sudoeste 8 Sudoeste 0 -- -- 83
2019-05-01 21:00:00 17.2 3 Sudoeste 10 Este 0 -- -- 70
2019-05-01 20:00:00 18.3 5 Este 19 Este 0 -- -- 64
2019-05-01 19:00:00 19 10 Este 26 Nordeste 0 -- -- 61
2019-05-01 18:00:00 20.5 12 Este 31 Nordeste 0 -- -- 57
2019-05-01 17:00:00 22 15 Nordeste 32 Este 0 -- -- 48
2019-05-01 16:00:00 22.5 14 Nordeste 31 Este 0 -- -- 44
2019-05-01 15:00:00 22.3 12 Nordeste 28 Nordeste 0 -- -- 42
2019-05-01 14:00:00 22.5 12 Nordeste 22 Este 0 -- -- 40
2019-05-01 13:00:00 21.6 8 Este 22 Nordeste 0 -- -- 45
2019-05-01 12:00:00 20.5 9 Nordeste 18 Nordeste 0 -- -- 46
2019-05-01 11:00:00 19.1 9 Nordeste 15 Nordeste 0 -- -- 51
2019-05-01 10:00:00 14.5 0 Calma 4 Sudeste 0 -- -- 82
2019-05-01 09:00:00 10.5 0 Calma 3 Noroeste 0 -- -- 97
2019-05-01 08:00:00 7.6 0 Calma 3 Noroeste 0 -- -- 99
2019-05-01 07:00:00 6.6 0 Calma 3 Noroeste 0 -- -- 98
2019-05-01 06:00:00 7.3 0 Calma 3 Noroeste 0 -- -- 97
2019-05-01 05:00:00 8.3 0 Calma 2 Noroeste 0 -- -- 97
2019-05-01 04:00:00 8.9 0 Calma 2 Sudeste 0 -- -- 95
2019-05-01 03:00:00 10.2 0 Calma 4 Norte 0 -- -- 93
2019-05-01 02:00:00 11.1 0 Calma 4 Este 0 -- -- 91
2019-05-01 01:00:00 12.4 0 Calma 3 Noroeste 0 -- -- 88
2019-05-01 00:00:00 13.1 0 Calma 5 Este 0 -- -- 85
2019-04-30 23:00:00 13.8 3 Nordeste 9 Nordeste 0 -- -- 81
2019-04-30 22:00:00 14.7 5 Sudeste 11 Sudeste 0 -- -- 78
2019-04-30 21:00:00 15.6 3 Sudeste 9 Nordeste 0 -- -- 73
2019-04-30 20:00:00 16.6 4 Este 10 Nordeste 0 -- -- 64
2019-04-30 19:00:00 17.8 3 Sudeste 20 Este 0 -- -- 57
2019-04-30 18:00:00 18.6 9 Este 20 Este 0 -- -- 51
2019-04-30 17:00:00 18.9 13 Este 31 Este 0 -- -- 52
2019-04-30 16:00:00 20.8 6 Sudeste 23 Este 0 -- -- 45
2019-04-30 15:00:00 20.5 11 Este 23 Nordeste 0 -- -- 48
2019-04-30 14:00:00 20.3 9 Este 18 Este 0 -- -- 45
2019-04-30 13:00:00 19.5 9 Nordeste 19 Este 0 -- -- 46
2019-04-30 12:00:00 18.8 6 Este 15 Este 0 -- -- 54
2019-04-30 11:00:00 16.2 4 Nordeste 10 Nordeste 0 -- -- 62
2019-04-30 10:00:00 13.8 0 Calma 8 Sudoeste 0 -- -- 76
2019-04-30 09:00:00 11.7 0 Calma 3 Noroeste 0 -- -- 89
2019-04-30 08:00:00 9.5 0 Calma 4 Noroeste 0 -- -- 96
2019-04-30 07:00:00 8.5 2 Oeste 6 Oeste 0 -- -- 96
2019-04-30 06:00:00 8.9 0 Calma 8 Norte 0 -- -- 95
2019-04-30 05:00:00 9.4 0 Calma 5 Oeste 0 -- -- 96
2019-04-30 04:00:00 9.4 0 Calma 4 Oeste 0 -- -- 95
2019-04-30 03:00:00 9.5 4 Oeste 8 Sudoeste 0 -- -- 95
2019-04-30 02:00:00 8.9 0 Calma 4 Noroeste 0 -- -- 95
2019-04-30 01:00:00 8.7 0 Calma 5 Oeste 0 -- -- 93
2019-04-30 00:00:00 9.6 0 Calma 4 Noroeste 0 -- -- 90
2019-04-29 23:00:00 11 2 Oeste 6 Oeste 0 -- -- 85
2019-04-29 22:00:00 13 2 Nordeste 13 Este 0 -- -- 80
2019-04-29 21:00:00 14.1 2 Sudeste 13 Sudeste 0 -- -- 75
2019-04-29 20:00:00 16 5 Este 17 Este 0 -- -- 66
2019-04-29 19:00:00 17 6 Este 26 Nordeste 0 -- -- 60
2019-04-29 18:00:00 17.7 13 Este 28 Este 0 -- -- 56
2019-04-29 17:00:00 19.2 9 Nordeste 20 Este 0 -- -- 51
2019-04-29 16:00:00 19.1 4 Nordeste 12 Este 0 -- -- 50
2019-04-29 15:00:00 17.5 5 Este 12 Sudeste 0 -- -- 56
2019-04-29 14:00:00 16.2 8 Este 12 Este 0 -- -- 59
2019-04-29 13:00:00 15.8 4 Oeste 12 Sudeste 0 -- -- 64
2019-04-29 12:00:00 14.2 5 Este 12 Este 0 -- -- 69
2019-04-29 11:00:00 14.4 4 Norte 8 Oeste 0 -- -- 67
2019-04-29 10:00:00 12 3 Sudoeste 5 Sudoeste 0 -- -- 76
2019-04-29 09:00:00 11 0 Calma 5 Oeste 0 -- -- 84
2019-04-29 08:00:00 10.7 0 Calma 5 Este 0 -- -- 84
2019-04-29 07:00:00 10.6 2 Este 6 Sudeste 0 -- -- 86
2019-04-29 06:00:00 10.8 2 Este 7 Este 0 -- -- 88
2019-04-29 05:00:00 10.9 3 Este 6 Sudeste 0 -- -- 88
2019-04-29 04:00:00 11 0 Calma 2 Este 0 -- -- 87
2019-04-29 03:00:00 11.2 0 Calma 4 Oeste 0 -- -- 86
2019-04-29 02:00:00 11.5 2 Este 5 Nordeste 0 -- -- 85
2019-04-29 01:00:00 11.6 0 Calma 4 Nordeste 0 -- -- 84
2019-04-29 00:00:00 11.8 0 Calma 4 Sudeste 0 -- -- 82
2019-04-28 23:00:00 12.1 0 Calma 4 Este 0 -- -- 83
2019-04-28 22:00:00 12.3 3 Sudeste 13 Este 0 -- -- 81
2019-04-28 21:00:00 12.8 7 Este 13 Este 0 -- -- 80
2019-04-28 20:00:00 13.6 6 Sudeste 12 Sudeste 0 -- -- 77
2019-04-28 19:00:00 14.7 5 Este 12 Nordeste 0 -- -- 70
2019-04-28 18:00:00 15.2 5 Este 22 Este 0 -- -- 68
2019-04-28 17:00:00 15.5 9 Este 25 Este 0 -- -- 63
2019-04-28 16:00:00 16.6 8 Este 22 Nordeste 0 -- -- 63
2019-04-28 15:00:00 16.6 9 Este 22 Este 0 -- -- 62
2019-04-28 14:00:00 16.6 10 Este 24 Nordeste 0 -- -- 65
2019-04-28 13:00:00 16.5 12 Este 28 Este 0 -- -- 66
2019-04-28 12:00:00 14.4 6 Este 12 Sudeste 0 -- -- 68
2019-04-28 11:00:00 13.1 6 Este 14 Sudeste 0 -- -- 71
2019-04-28 10:00:00 12.1 7 Este 16 Este 0 -- -- 76
2019-04-28 09:00:00 11.2 7 Este 14 Este 0 -- -- 89
2019-04-28 08:00:00 9.8 3 Nordeste 5 Nordeste 0 -- -- 92
2019-04-28 07:00:00 10 3 Este 7 Sudeste 0 -- -- 92
2019-04-28 06:00:00 10.1 3 Nordeste 5 Nordeste 0 -- -- 92
2019-04-28 05:00:00 11 0 Calma 3 Nordeste 0 -- -- 92
2019-04-28 04:00:00 11.2 0 Calma 4 Sudeste 0 -- -- 91
2019-04-28 03:00:00 11.7 0 Calma 6 Sudoeste 0 -- -- 91
2019-04-28 02:00:00 12.3 0 Calma 4 Este 0 -- -- 91
2019-04-28 01:00:00 12.1 0 Calma 4 Noroeste 0 -- -- 90
2019-04-28 00:00:00 12.2 0 Calma 3 Sudoeste 0 -- -- 89
2019-04-27 23:00:00 13 0 Calma 3 Sudoeste 0 -- -- 88
2019-04-27 22:00:00 13.6 0 Calma 3 Noroeste 0 -- -- 84
2019-04-27 21:00:00 14 0 Calma 3 Sur 0 -- -- 82
2019-04-27 20:00:00 14.8 2 Sudeste 6 Este 0 -- -- 78
2019-04-27 19:00:00 15 2 Sudeste 8 Nordeste 0 -- -- 75
2019-04-27 18:00:00 15.7 4 Este 12 Nordeste 0 -- -- 68
2019-04-27 17:00:00 16.3 8 Este 18 Nordeste 0 -- -- 64
2019-04-27 16:00:00 17 5 Nordeste 19 Este 0 -- -- 59
2019-04-27 15:00:00 18.1 8 Este 23 Este 0 -- -- 56
2019-04-27 14:00:00 17.8 9 Nordeste 18 Nordeste 0 -- -- 56
2019-04-27 13:00:00 17.4 9 Nordeste 20 Nordeste 0 -- -- 53
2019-04-27 12:00:00 17 4 Norte 10 Norte 0 -- -- 57
2019-04-27 11:00:00 15.6 4 Noroeste 12 Nordeste 0 -- -- 62
2019-04-27 10:00:00 10.3 2 Norte 6 Sudoeste 0 -- -- 100
2019-04-27 09:00:00 8.1 0 Calma 5 Sudoeste 0 -- -- 100
2019-04-27 08:00:00 7.4 0 Calma 4 Sudeste 0 -- -- 100
2019-04-27 07:00:00 6.1 3 Nordeste 4 Nordeste 0 -- -- 98
2019-04-27 06:00:00 5.9 3 Oeste 5 Nordeste 0 -- -- 98
2019-04-27 05:00:00 6.8 2 Este 5 Nordeste 0 -- -- 97
2019-04-27 04:00:00 7.6 0 Calma 2 Noroeste 0 -- -- 97
2019-04-27 03:00:00 8.1 0 Calma 3 Sudoeste 0 -- -- 96
2019-04-27 02:00:00 9.2 2 Sudoeste 4 Oeste 0 -- -- 94
2019-04-27 01:00:00 9.7 2 Nordeste 3 Norte 0 -- -- 92
2019-04-27 00:00:00 10.3 0 Calma 4 Noroeste 0 -- -- 88
2019-04-26 23:00:00 11.6 2 Sudoeste 6 Sudoeste 0 -- -- 85
2019-04-26 22:00:00 11.8 0 Calma 6 Sur 0 -- -- 83
2019-04-26 21:00:00 12.1 4 Sur 9 Sudoeste 0 -- -- 79
2019-04-26 20:00:00 12.7 3 Sur 16 Sudoeste 0 -- -- 77
2019-04-26 19:00:00 14.2 4 Oeste 13 Oeste 0 -- -- 71
2019-04-26 18:00:00 14.2 7 Este 28 Este 0 -- -- 68
2019-04-26 17:00:00 16.1 13 Este 27 Nordeste 0 -- -- 63
2019-04-26 16:00:00 17.1 10 Este 20 Sudeste 0 -- -- 57
2019-04-26 15:00:00 15.4 11 Nordeste 24 Nordeste 0 -- -- 61
2019-04-26 14:00:00 18.2 5 Sur 18 Sudeste 0 -- -- 46
2019-04-26 13:00:00 17.4 9 Nordeste 18 Nordeste 0 -- -- 44
2019-04-26 12:00:00 17.2 6 Norte 12 Nordeste 0 -- -- 45
2019-04-26 11:00:00 15.5 3 Norte 9 Nordeste 0 -- -- 50
2019-04-26 10:00:00 11.4 2 Norte 8 Oeste 0 -- -- 75
2019-04-26 09:00:00 7.3 3 Noroeste 5 Oeste 0 -- -- 95
2019-04-26 08:00:00 3.8 3 Oeste 8 Noroeste 0 -- -- 99
2019-04-26 07:00:00 2.6 2 Noroeste 6 Oeste 0 -- -- 97
2019-04-26 06:00:00 3.3 3 Oeste 8 Oeste 0 -- -- 97
2019-04-26 05:00:00 4.3 7 Sudeste 11 Este 0 -- -- 96
2019-04-26 04:00:00 5 4 Oeste 17 Noroeste 0 -- -- 93
2019-04-26 03:00:00 5.7 9 Oeste 18 Oeste 0 -- -- 97
2019-04-26 02:00:00 5.7 6 Oeste 14 Oeste 0 -- -- 98
2019-04-26 01:00:00 5.6 4 Sudoeste 10 Sudoeste 0 -- -- 98
2019-04-26 00:00:00 6.2 3 Sur 9 Noroeste 0 -- -- 97
2019-04-25 23:00:00 7.1 5 Oeste 9 Oeste 0 -- -- 95
2019-04-25 22:00:00 8.1 4 Oeste 10 Oeste 0 -- -- 94
2019-04-25 21:00:00 9.7 4 Sudeste 33 Sudoeste 0.4 -- -- 88
2019-04-25 20:00:00 11.8 25 Sudoeste 55 Sudoeste 0.6 -- -- 76
2019-04-25 19:00:00 14.2 3 Este 28 Oeste 0.2 -- -- 72
2019-04-25 18:00:00 16.4 13 Oeste 44 Oeste 0 -- -- 59
2019-04-25 17:00:00 19.3 18 Oeste 41 Oeste 0 -- -- 47
2019-04-25 16:00:00 17.2 6 Este 17 Este 0 -- -- 53
2019-04-25 15:00:00 14 4 Nordeste 37 Noroeste 0.2 -- -- 65
2019-04-25 14:00:00 14 10 Noroeste 47 Oeste 0 -- -- 61
2019-04-25 13:00:00 14.9 11 Noroeste 32 Noroeste 0 -- -- 60
2019-04-25 12:00:00 14.4 14 Este 32 Sudeste 0 -- -- 68
2019-04-25 11:00:00 13.9 3 Sudeste 20 Este 0.2 -- -- 81
2019-04-25 10:00:00 13.4 5 Este 17 Este 0.6 -- -- 87
2019-04-25 09:00:00 13.3 5 Este 16 Este 0.2 -- -- 82
2019-04-25 08:00:00 13.6 6 Sur 20 Este 0 -- -- 79
2019-04-25 07:00:00 13.3 8 Sudeste 27 Este 0 -- -- 80
2019-04-25 06:00:00 12.8 8 Sudeste 23 Este 0.4 -- -- 83
2019-04-25 05:00:00 11.7 6 Este 19 Nordeste 1.2 -- -- 89
2019-04-25 04:00:00 11.3 6 Este 20 Sudeste 0.4 -- -- 88
2019-04-25 03:00:00 10.6 2 Oeste 8 Norte 0.6 -- -- 86
2019-04-25 02:00:00 12 4 Este 11 Norte 0 -- -- 66
2019-04-25 01:00:00 12.4 4 Sudeste 14 Oeste 0 -- -- 63
2019-04-25 00:00:00 11.7 3 Norte 8 Sudoeste 0 -- -- 67
2019-04-24 23:00:00 12.3 4 Sur 18 Sudoeste 0 -- -- 63
2019-04-24 22:00:00 13.1 4 Sudoeste 32 Sudoeste 0 -- -- 57
2019-04-24 21:00:00 13.9 10 Sur 23 Sur 0 -- -- 50
2019-04-24 20:00:00 15.3 7 Sudoeste 23 Sudoeste 0 -- -- 53
2019-04-24 19:00:00 15.8 12 Oeste 31 Sudoeste 0 -- -- 48
2019-04-24 18:00:00 17.1 12 Sur 38 Oeste 0 -- -- 45
2019-04-24 17:00:00 16.4 9 Oeste 48 Oeste 0 -- -- 46
2019-04-24 16:00:00 16.5 17 Oeste 48 Oeste 0 -- -- 41
2019-04-24 15:00:00 16.5 9 Oeste 46 Oeste 0 -- -- 43
2019-04-24 14:00:00 16.6 12 Oeste 59 Oeste 0 -- -- 41
2019-04-24 13:00:00 15.6 21 Oeste 50 Oeste 0 -- -- 46
2019-04-24 12:00:00 15.4 20 Oeste 44 Oeste 0 -- -- 47
2019-04-24 11:00:00 14.5 4 Noroeste 15 Este 0 -- -- 53
2019-04-24 10:00:00 13 5 Oeste 14 Oeste 0 -- -- 61
2019-04-24 09:00:00 11.3 3 Oeste 7 Noroeste 0 -- -- 79
2019-04-24 08:00:00 8.4 0 Calma 10 Oeste 0 -- -- 91
2019-04-24 07:00:00 8.1 6 Oeste 10 Sudoeste 0 -- -- 87
2019-04-24 06:00:00 10.7 5 Sudoeste 30 Oeste 0 -- -- 77
2019-04-24 05:00:00 13.1 6 Oeste 23 Oeste 0 -- -- 70
2019-04-24 04:00:00 12.2 7 Oeste 18 Sudoeste 0 -- -- 75
2019-04-24 03:00:00 12.3 6 Sur 15 Sur 0 -- -- 78
2019-04-24 02:00:00 10.1 3 Oeste 9 Sudoeste 0 -- -- 96
2019-04-24 01:00:00 9.6 0 Calma 4 Sur 0 -- -- 96
2019-04-24 00:00:00 10.4 0 Calma 8 Oeste 0 -- -- 95